LXJ65G KVNY-EGGW
Flight info
| Callsign | LXJ65G |
|---|---|
| Flight time | N/A |
| Altitude | 45000 |
| Route | HARYS5 LAS Q70 BLIPP Q842 WINEN DCT MLF DCT FBR DCT RLY DCT SHR DCT SWTHN DCT FONIA DCT CIPTA DCT AMENU DCT 57N090W DCT DUGNO DCT 63N070W/N0500F450 DCT MUSVA/M087F450 DCT CLAVY DCT 65N050W 65N040W 64N030W 62N020W DCT ERAKA/N0502F450 DCT ETSOM DCT KELLY L10 WAL UQ4 LISTO |
| Aircraft | GLF6/M-ICAO/LB1D1 |
Departure
| Time | 2026-04-25 23:36 |
|---|---|
| Airport | Van Nuys Airport (KVNY) |
Arrival
| Time | N/A |
|---|---|
| Airport | London Luton Airport (EGGW) |
| Time | Latitude | Longitude | Altitude | Speed | Heading |
|---|---|---|---|---|---|
| 2026-04-25 23:20 | 34.19874 | -118.48797 | 755 ft | 0 kts | 91° |
| 2026-04-25 23:28 | 34.19897 | -118.48788 | 756 ft | 8 kts | 351° |
| 2026-04-25 23:28 | 34.19937 | -118.48817 | 756 ft | 6 kts | 288° |
| 2026-04-25 23:28 | 34.19965 | -118.48855 | 757 ft | 7 kts | 353° |
| 2026-04-25 23:29 | 34.20035 | -118.48856 | 758 ft | 12 kts | 360° |
| 2026-04-25 23:29 | 34.20138 | -118.48856 | 760 ft | 17 kts | 360° |
| 2026-04-25 23:29 | 34.20273 | -118.48856 | 763 ft | 19 kts | 1° |
| 2026-04-25 23:29 | 34.20408 | -118.48849 | 767 ft | 18 kts | 5° |
| 2026-04-25 23:30 | 34.20520 | -118.48839 | 771 ft | 13 kts | 4° |
| 2026-04-25 23:30 | 34.20602 | -118.48832 | 772 ft | 10 kts | 4° |
| 2026-04-25 23:30 | 34.20686 | -118.48825 | 774 ft | 14 kts | 4° |
| 2026-04-25 23:30 | 34.20801 | -118.48817 | 776 ft | 19 kts | 359° |
| 2026-04-25 23:31 | 34.20924 | -118.48829 | 779 ft | 10 kts | 355° |
| 2026-04-25 23:31 | 34.21003 | -118.48837 | 781 ft | 12 kts | 355° |
| 2026-04-25 23:31 | 34.21098 | -118.48846 | 782 ft | 15 kts | 355° |
| 2026-04-25 23:31 | 34.21214 | -118.48856 | 785 ft | 18 kts | 356° |
| 2026-04-25 23:32 | 34.21350 | -118.48872 | 788 ft | 19 kts | 355° |
| 2026-04-25 23:32 | 34.21479 | -118.48882 | 791 ft | 17 kts | 355° |
| 2026-04-25 23:32 | 34.21587 | -118.48901 | 793 ft | 14 kts | 348° |
| 2026-04-25 23:32 | 34.21679 | -118.48923 | 796 ft | 12 kts | 350° |
| 2026-04-25 23:33 | 34.21775 | -118.48939 | 798 ft | 14 kts | 356° |
| 2026-04-25 23:33 | 34.21865 | -118.48948 | 800 ft | 12 kts | 352° |
| 2026-04-25 23:33 | 34.21870 | -118.48949 | 800 ft | 0 kts | 344° |
| 2026-04-25 23:34 | 34.21875 | -118.48951 | 800 ft | 2 kts | 339° |
| 2026-04-25 23:34 | 34.21891 | -118.48991 | 801 ft | 7 kts | 270° |
| 2026-04-25 23:34 | 34.21888 | -118.49048 | 801 ft | 8 kts | 265° |
| 2026-04-25 23:34 | 34.21859 | -118.49122 | 801 ft | 12 kts | 183° |
| 2026-04-25 23:35 | 34.21837 | -118.49120 | 800 ft | 1 kts | 175° |
| 2026-04-25 23:35 | 34.21833 | -118.49119 | 800 ft | 0 kts | 175° |
| 2026-04-25 23:35 | 34.21821 | -118.49118 | 800 ft | 12 kts | 174° |
| 2026-04-25 23:35 | 34.21471 | -118.49090 | 793 ft | 89 kts | 178° |
| 2026-04-25 23:36 | 34.20607 | -118.49002 | 835 ft | 150 kts | 176° |
| 2026-04-25 23:36 | 34.19563 | -118.48888 | 1481 ft | 155 kts | 175° |
| 2026-04-25 23:36 | 34.18614 | -118.48304 | 2133 ft | 175 kts | 139° |
| 2026-04-25 23:36 | 34.17853 | -118.46880 | 2449 ft | 214 kts | 121° |
| 2026-04-25 23:37 | 34.17161 | -118.45269 | 3192 ft | 226 kts | 109° |
| 2026-04-25 23:37 | 34.17221 | -118.43433 | 3984 ft | 227 kts | 69° |
| 2026-04-25 23:37 | 34.18222 | -118.41969 | 4029 ft | 228 kts | 26° |
| 2026-04-25 23:37 | 34.19715 | -118.41621 | 4050 ft | 218 kts | 354° |
| 2026-04-25 23:38 | 34.21229 | -118.41770 | 4014 ft | 217 kts | 352° |
| 2026-04-25 23:38 | 34.22761 | -118.41954 | 4125 ft | 234 kts | 352° |
| 2026-04-25 23:38 | 34.24279 | -118.42342 | 5422 ft | 216 kts | 340° |
| 2026-04-25 23:38 | 34.25673 | -118.42937 | 6256 ft | 221 kts | 337° |
| 2026-04-25 23:39 | 34.27156 | -118.43514 | 7091 ft | 228 kts | 340° |
| 2026-04-25 23:39 | 34.28684 | -118.44009 | 7909 ft | 235 kts | 343° |
| 2026-04-25 23:39 | 34.30315 | -118.44475 | 8590 ft | 248 kts | 344° |
| 2026-04-25 23:39 | 34.32009 | -118.44916 | 9508 ft | 251 kts | 345° |
| 2026-04-25 23:40 | 34.33763 | -118.45144 | 10045 ft | 272 kts | 7° |
| 2026-04-25 23:40 | 34.35487 | -118.44170 | 10823 ft | 281 kts | 39° |
| 2026-04-25 23:40 | 34.36986 | -118.42623 | 11713 ft | 285 kts | 40° |
| 2026-04-25 23:40 | 34.38527 | -118.41055 | 12262 ft | 302 kts | 39° |
| 2026-04-25 23:41 | 34.40225 | -118.39347 | 12670 ft | 325 kts | 39° |
| 2026-04-25 23:41 | 34.41951 | -118.37618 | 13706 ft | 324 kts | 39° |
| 2026-04-25 23:41 | 34.43705 | -118.35864 | 14428 ft | 334 kts | 39° |
| 2026-04-25 23:41 | 34.45483 | -118.34089 | 15312 ft | 338 kts | 39° |
| 2026-04-25 23:42 | 34.47318 | -118.32259 | 16109 ft | 345 kts | 39° |
| 2026-04-25 23:42 | 34.49192 | -118.30385 | 16952 ft | 350 kts | 39° |
| 2026-04-25 23:42 | 34.51100 | -118.28477 | 17772 ft | 356 kts | 39° |
| 2026-04-25 23:42 | 34.53038 | -118.26538 | 18576 ft | 363 kts | 39° |
| 2026-04-25 23:43 | 34.54986 | -118.24587 | 19365 ft | 370 kts | 39° |
| 2026-04-25 23:43 | 34.57007 | -118.22563 | 20162 ft | 376 kts | 39° |
| 2026-04-25 23:43 | 34.59026 | -118.20541 | 20917 ft | 383 kts | 39° |
| 2026-04-25 23:43 | 34.61114 | -118.18447 | 21755 ft | 388 kts | 39° |
| 2026-04-25 23:44 | 34.63213 | -118.16341 | 22411 ft | 397 kts | 39° |
| 2026-04-25 23:44 | 34.65297 | -118.14123 | 23244 ft | 399 kts | 50° |
| 2026-04-25 23:44 | 34.66723 | -118.11208 | 23950 ft | 398 kts | 77° |
| 2026-04-25 23:44 | 34.67353 | -118.07959 | 24633 ft | 400 kts | 84° |
| 2026-04-25 23:45 | 34.67910 | -118.04645 | 25452 ft | 403 kts | 84° |
| 2026-04-25 23:45 | 34.68470 | -118.01324 | 26275 ft | 405 kts | 84° |
| 2026-04-25 23:45 | 34.69042 | -117.97903 | 26927 ft | 412 kts | 85° |
| 2026-04-25 23:45 | 34.69344 | -117.94476 | 27669 ft | 410 kts | 92° |
| 2026-04-25 23:46 | 34.69545 | -117.91013 | 28246 ft | 418 kts | 92° |
| 2026-04-25 23:46 | 34.69754 | -117.87479 | 29018 ft | 420 kts | 92° |
| 2026-04-25 23:46 | 34.69967 | -117.83977 | 29737 ft | 423 kts | 92° |
| 2026-04-25 23:46 | 34.70169 | -117.80548 | 30223 ft | 430 kts | 92° |
| 2026-04-25 23:47 | 34.70385 | -117.76955 | 30891 ft | 431 kts | 92° |
| 2026-04-25 23:47 | 34.70557 | -117.73305 | 31301 ft | 438 kts | 94° |
| 2026-04-25 23:47 | 34.70700 | -117.69600 | 31964 ft | 438 kts | 94° |
| 2026-04-25 23:47 | 34.70843 | -117.65967 | 32605 ft | 437 kts | 94° |
| 2026-04-25 23:48 | 34.70985 | -117.62299 | 33182 ft | 438 kts | 94° |
| 2026-04-25 23:48 | 34.71126 | -117.58630 | 33780 ft | 436 kts | 93° |
| 2026-04-25 23:48 | 34.71267 | -117.54974 | 34165 ft | 440 kts | 94° |
| 2026-04-25 23:48 | 34.71463 | -117.51227 | 34578 ft | 447 kts | 85° |
| 2026-04-25 23:49 | 34.72268 | -117.47623 | 35017 ft | 452 kts | 75° |
| 2026-04-25 23:49 | 34.73214 | -117.44115 | 35508 ft | 451 kts | 75° |
| 2026-04-25 23:49 | 34.74081 | -117.40872 | 35912 ft | 451 kts | 75° |
| 2026-04-25 23:49 | 34.75098 | -117.37047 | 36535 ft | 449 kts | 75° |
| 2026-04-25 23:50 | 34.76048 | -117.33467 | 36799 ft | 455 kts | 76° |
| 2026-04-25 23:50 | 34.77041 | -117.29720 | 36793 ft | 469 kts | 75° |
| 2026-04-25 23:50 | 34.78058 | -117.25886 | 36845 ft | 482 kts | 76° |
| 2026-04-25 23:50 | 34.79101 | -117.21942 | 36909 ft | 494 kts | 75° |
| 2026-04-25 23:51 | 34.80156 | -117.17944 | 37453 ft | 492 kts | 75° |
| 2026-04-25 23:51 | 34.81197 | -117.13997 | 37760 ft | 496 kts | 75° |
| 2026-04-25 23:51 | 34.82256 | -117.09978 | 37962 ft | 502 kts | 75° |
| 2026-04-25 23:51 | 34.83328 | -117.05899 | 38322 ft | 503 kts | 75° |
| 2026-04-25 23:52 | 34.84388 | -117.01861 | 38684 ft | 505 kts | 75° |
| 2026-04-25 23:52 | 34.85461 | -116.97760 | 38941 ft | 508 kts | 75° |
| 2026-04-25 23:52 | 34.86528 | -116.93687 | 39154 ft | 513 kts | 75° |
| 2026-04-25 23:52 | 34.87600 | -116.89585 | 39456 ft | 515 kts | 75° |
| 2026-04-25 23:53 | 34.88654 | -116.85543 | 39674 ft | 519 kts | 75° |
| 2026-04-25 23:53 | 34.89741 | -116.81371 | 39937 ft | 521 kts | 74° |
| 2026-04-25 23:53 | 34.90825 | -116.77199 | 40278 ft | 522 kts | 74° |
| 2026-04-25 23:53 | 34.92172 | -116.73099 | 40404 ft | 528 kts | 59° |
| 2026-04-25 23:54 | 34.94394 | -116.69572 | 40589 ft | 528 kts | 44° |
| 2026-04-25 23:54 | 34.96920 | -116.66288 | 40927 ft | 528 kts | 45° |
| 2026-04-25 23:54 | 34.99421 | -116.63007 | 41071 ft | 533 kts | 45° |
| 2026-04-25 23:54 | 35.01977 | -116.59641 | 41293 ft | 535 kts | 44° |
| 2026-04-25 23:55 | 35.04500 | -116.56310 | 41660 ft | 534 kts | 45° |
| 2026-04-25 23:55 | 35.07046 | -116.52949 | 41808 ft | 538 kts | 45° |
| 2026-04-25 23:55 | 35.09601 | -116.49575 | 42053 ft | 540 kts | 44° |
| 2026-04-25 23:55 | 35.12165 | -116.46188 | 42182 ft | 543 kts | 45° |
| 2026-04-25 23:56 | 35.14745 | -116.42763 | 42428 ft | 543 kts | 44° |
| 2026-04-25 23:56 | 35.17308 | -116.39368 | 42729 ft | 542 kts | 44° |
| 2026-04-25 23:56 | 35.19864 | -116.35983 | 42756 ft | 549 kts | 45° |
| 2026-04-25 23:56 | 35.22461 | -116.32530 | 42918 ft | 549 kts | 45° |
| 2026-04-25 23:57 | 35.25070 | -116.29060 | 43277 ft | 547 kts | 45° |
| 2026-04-25 23:57 | 35.30240 | -116.22176 | 43512 ft | 551 kts | 45° |
| 2026-04-25 23:58 | 35.35471 | -116.15199 | 43810 ft | 553 kts | 45° |
| 2026-04-25 23:58 | 35.40734 | -116.08160 | 44066 ft | 555 kts | 44° |
| 2026-04-25 23:58 | 35.43335 | -116.04678 | 44333 ft | 554 kts | 44° |
| 2026-04-25 23:59 | 35.45927 | -116.01205 | 44325 ft | 558 kts | 44° |
| 2026-04-25 23:59 | 35.48542 | -115.97697 | 44480 ft | 558 kts | 45° |
| 2026-04-25 23:59 | 35.51181 | -115.94151 | 44766 ft | 554 kts | 44° |
| 2026-04-26 00:00 | 35.56303 | -115.87258 | 44804 ft | 531 kts | 44° |
| 2026-04-26 00:00 | 35.58751 | -115.83958 | 44763 ft | 519 kts | 44° |
| 2026-04-26 00:00 | 35.61165 | -115.80708 | 44787 ft | 516 kts | 44° |
| 2026-04-26 00:01 | 35.66019 | -115.74092 | 44778 ft | 516 kts | 45° |